• Join FlightAware (Why Join?)
  • Login
  • US Flag 
12:19PM EDT


 

Airport Tracker/Info


-or-


 

Live Flight TrackerFlight Track Log ✈ AAY847 ✈ 01-May-2012 ✈ KPIA - KPIE

Flight Track Log - Related Links

Times and Time Zones

All times are in EDT time to prevent confusion due to time zone crossing. See the AAY847 flight status page for this flight to view local times or setup timezone preferences in your user account.

Time Position Orientation Groundspeed Altitude Reporting Facility
EDT Latitude Longitude Course Direction KTS MPH feet Rate Location/Type
07:31PM 40.5633 -89.7161 178° South 209 241 4,100  Level Chicago Center
07:32PM 40.4822 -89.7131 177° South 252 290 7,200 3,000 Climbing Chicago Center
07:33PM 40.4008 -89.7072 178° South 284 327 10,200 2,700 Climbing Chicago Center
07:34PM 40.3156 -89.7039 178° South 300 345 12,600 1,860 Climbing Chicago Center
07:37PM 40.0803 -89.6925 177° South 370 426 16,200 1,860 Climbing Kansas City Center
07:38PM 39.9611 -89.6844 176° South 409 471 18,600 2,160 Climbing Kansas City Center
07:39PM 39.8400 -89.6736 144° Southeast 429 494 20,600 1,920 Climbing Kansas City Center
07:40PM 39.7358 -89.5756 141° Southeast 435 501 22,500 1,740 Climbing Kansas City Center
07:41PM 39.6333 -89.4667 143° Southeast 449 517 24,100 1,500 Climbing Kansas City Center
07:42PM 39.5269 -89.3636 142° Southeast 470 541 25,600 1,800 Climbing Kansas City Center
07:43PM 39.4219 -89.2556 140° Southeast 481 554 27,800 1,800 Climbing Kansas City Center
07:44PM 39.3192 -89.1450 142° Southeast 481 554 29,200 1,320 Climbing Kansas City Center
07:45PM 39.2122 -89.0378 141° Southeast 481 554 30,500 1,260 Climbing Kansas City Center
07:46PM 39.1136 -88.9356 143° Southeast 481 554 31,800 1,200 Climbing Kansas City Center
07:47PM 39.0108 -88.8364 142° Southeast 469 540 33,000 600 Climbing Kansas City Center
07:48PM 38.9103 -88.7350 142° Southeast 464 534 33,000  Level Kansas City Center
07:49PM 38.8114 -88.6361 142° Southeast 458 527 33,000  Level Kansas City Center
07:50PM 38.7150 -88.5400 142° Southeast 452 520 33,000  Level Kansas City Center
07:51PM 38.5353 -88.3575 143° Southeast 444 511 33,000  Level Indianapolis Center
07:52PM 38.4369 -88.2636 142° Southeast 444 511 33,000  Level Indianapolis Center
07:53PM 38.3386 -88.1672 142° Southeast 449 517 33,000  Level Indianapolis Center
07:54PM 38.2381 -88.0656 143° Southeast 449 517 33,000 300 Level Indianapolis Center
07:55PM 38.1394 -87.9697 143° Southeast 449 517 33,700 540 Climbing Indianapolis Center
07:56PM 38.0389 -87.8739 155° Southeast 449 517 34,100 420 Climbing Indianapolis Center
07:57PM 37.9264 -87.8069 158° South 449 517 34,600 420 Climbing Indianapolis Center
07:58PM 37.8117 -87.7478 158° South 444 511 35,000 120 Climbing Indianapolis Center
08:00PM 37.5811 -87.6303 158° South 443 510 35,000  Level Memphis Center
08:01PM 37.4800 -87.5789 157° South 438 504 35,000  Level Memphis Center
08:02PM 37.3681 -87.5203 158° South 438 504 35,000  Level Memphis Center
08:03PM 37.2544 -87.4617 157° South 438 504 35,000  Level Memphis Center
08:04PM 37.1425 -87.4033 159° South 438 504 35,000  Level Memphis Center
08:05PM 37.0286 -87.3478 158° South 438 504 35,000  Level Memphis Center
08:06PM 36.9147 -87.2900 158° South 438 504 35,000  Level Memphis Center
08:07PM 36.7881 -87.2275 158° South 443 510 35,000  Level Memphis Center
08:08PM 36.6719 -87.1697 159° South 443 510 35,000  Level Memphis Center
08:09PM 36.5561 -87.1150 159° South 443 510 35,000  Level Memphis Center
08:10PM 36.4419 -87.0603 159° South 443 510 35,000  Level Memphis Center
08:11PM 36.3217 -87.0033 160° South 443 510 35,000  Level Memphis Center
08:12PM 36.1992 -86.9467 158° South 461 531 35,000  Level Memphis Center
08:13PM 36.0828 -86.8872 157° South 462 532 35,000  Level Memphis Center
08:14PM 35.9686 -86.8281 158° South 455 524 35,000  Level Memphis Center
08:15PM 35.8544 -86.7714 159° South 455 524 35,000  Level Memphis Center
08:17PM 35.6794 -86.6872 158° South 448 516 35,000  Level Atlanta Center
08:18PM 35.5597 -86.6272 157° South 459 528 35,000  Level Atlanta Center
08:19PM 35.4336 -86.5622 158° South 459 528 35,000  Level Atlanta Center
08:20PM 35.3139 -86.5025 160° South 454 522 35,000  Level Atlanta Center
08:21PM 35.2003 -86.4508 157° South 467 537 35,000  Level Atlanta Center
08:22PM 35.0844 -86.3917 159° South 462 532 35,000  Level Atlanta Center
08:23PM 34.9625 -86.3350 158° South 467 537 35,000  Level Atlanta Center
08:24PM 34.8425 -86.2761 159° South 467 537 35,000  Level Atlanta Center
08:25PM 34.7225 -86.2197 159° South 467 537 35,000  Level Atlanta Center
08:26PM 34.5900 -86.1583 158° South 467 537 35,000  Level Atlanta Center
08:27PM 34.4678 -86.0997 159° South 467 537 35,000  Level Atlanta Center
08:28PM 34.3456 -86.0439 160° South 467 537 35,000  Level Atlanta Center
08:29PM 34.2233 -85.9908 159° South 467 537 35,000  Level Atlanta Center
08:30PM 34.1011 -85.9353 159° South 472 543 35,000  Level Atlanta Center
08:31PM 33.9911 -85.8853 160° South 472 543 35,000  Level Atlanta Center
08:32PM 33.8669 -85.8300 161° South 472 543 35,000  Level Atlanta Center
08:33PM 33.7319 -85.7747 159° South 466 536 35,000  Level Atlanta Center
08:34PM 33.6097 -85.7175 159° South 466 536 35,000  Level Atlanta Center
08:35PM 33.4997 -85.6656 160° South 471 542 35,000  Level Atlanta Center
08:36PM 33.3750 -85.6108 158° South 471 542 35,000  Level Atlanta Center
08:37PM 33.2547 -85.5517 159° South 471 542 35,000  Level Atlanta Center
08:38PM 33.1322 -85.4950 161° South 465 535 35,000  Level Atlanta Center
08:39PM 33.0078 -85.4433 159° South 465 535 35,000  Level Atlanta Center
08:40PM 32.8769 -85.3844 159° South 465 535 35,000  Level Atlanta Center
08:41PM 32.7564 -85.3281 160° South 465 535 35,000  Level Atlanta Center
08:42PM 32.6358 -85.2747 160° South 465 535 35,000  Level Atlanta Center
08:43PM 32.5175 -85.2236 160° South 465 535 35,000  Level Atlanta Center
08:44PM 32.3969 -85.1706 159° South 465 535 35,000  Level Atlanta Center
08:45PM 32.2783 -85.1172 160° South 465 535 35,000  Level Atlanta Center
08:47PM 32.0525 -85.0203 158° South 460 529 35,000  Level Jacksonville Center
08:48PM 31.9367 -84.9661 161° South 455 524 35,000  Level Jacksonville Center
08:49PM 31.8183 -84.9169 161° South 450 518 35,000  Level Jacksonville Center
08:50PM 31.6981 -84.8681 159° South 450 518 35,000  Level Jacksonville Center
08:51PM 31.5819 -84.8167 158° South 445 512 35,000  Level Jacksonville Center
08:52PM 31.4742 -84.7658 155° Southeast 453 521 35,000  Level Jacksonville Center
08:53PM 31.3603 -84.7028 153° Southeast 453 521 35,000  Level Jacksonville Center
08:54PM 31.2483 -84.6372 154° Southeast 453 521 35,000  Level Jacksonville Center
08:55PM 31.1367 -84.5722 155° Southeast 453 521 35,000  Level Jacksonville Center
08:56PM 31.0225 -84.5094 153° Southeast 453 521 35,000  Level Jacksonville Center
08:57PM 30.9086 -84.4422 154° Southeast 453 521 35,000  Level Jacksonville Center
08:58PM 30.7925 -84.3775 154° Southeast 458 527 35,000  Level Jacksonville Center
08:59PM 30.6761 -84.3128 155° Southeast 463 533 35,000  Level Jacksonville Center
09:00PM 30.5578 -84.2483 155° Southeast 463 533 35,000  Level Jacksonville Center
09:01PM 30.4353 -84.1817 154° Southeast 463 533 35,000  Level Jacksonville Center
09:02PM 30.3192 -84.1150 155° Southeast 463 533 35,000  Level Jacksonville Center
09:03PM 30.2028 -84.0511 154° Southeast 463 533 35,000  Level Jacksonville Center
09:04PM 30.0864 -83.9847 154° Southeast 463 533 35,000  Level Jacksonville Center
09:05PM 29.9681 -83.9189 155° Southeast 463 533 35,000  Level Jacksonville Center
09:06PM 29.8517 -83.8553 155° Southeast 463 533 35,000  Level Jacksonville Center
09:07PM 29.7350 -83.7919 154° Southeast 463 533 35,000  Level Jacksonville Center
09:08PM 29.6167 -83.7264 155° Southeast 463 533 35,000 -60 Level Jacksonville Center
09:09PM 29.4981 -83.6633 154° Southeast 463 533 34,900 -1,200 Descending Jacksonville Center
09:10PM 29.3836 -83.6006 155° Southeast 463 533 32,600 -3,000 Descending Jacksonville Center
09:11PM 29.2628 -83.5353 151° Southeast 468 539 29,000 -3,720 Descending Jacksonville Center
09:12PM 29.1483 -83.4633 150° Southeast 468 539 25,200 -2,880 Descending Jacksonville Center
09:13PM 29.0358 -83.3889 153° Southeast 463 533 23,300 -1,920 Descending Jacksonville Center
09:14PM 28.9233 -83.3244 149° Southeast 463 533 21,400 -2,100 Descending Jacksonville Center
09:15PM 28.8214 -83.2553 150° Southeast 449 517 19,200 -2,340 Descending Jacksonville Center
09:16PM 28.7236 -83.1908 149° Southeast 427 491 16,800 -2,280 Descending Jacksonville Center
09:18PM 28.5667 -83.0833 161° South 373 429 13,000 -1,440 Descending Tampa TRACON
09:19PM 28.4833 -83.0500 147° Southeast 311 358 13,000 -720 Level Tampa TRACON
09:20PM 28.4167 -83.0000 156° South 283 326 11,600 -1,440 Descending Tampa TRACON
09:21PM 28.3500 -82.9667 145° Southeast 277 319 10,100 -1,740 Descending Tampa TRACON
09:22PM 28.2667 -82.9000 156° South 275 316 7,800 -1,740 Descending Tampa TRACON
09:23PM 28.2000 -82.8667 147° Southeast 269 310 6,400 -1,500 Descending Tampa TRACON
09:24PM 28.1333 -82.8167 150° Southeast 263 303 4,800 -1,440 Descending Tampa TRACON
09:25PM 28.0833 -82.7833 139° Southeast 251 289 3,600 -1,080 Descending Tampa TRACON
09:26PM 28.0333 -82.7333 139° Southeast 198 228 2,600 -1,080 Descending Tampa TRACON
09:27PM 28.0000 -82.7000 139° Southeast 179 206 1,300 -1,200 Descending Tampa TRACON